createdAt,value
2022-10-06T00:00:36.917Z,16.58
2022-10-06T00:01:36.928Z,16.58
2022-10-06T00:02:36.912Z,16.58
2022-10-06T00:03:36.849Z,16.58
2022-10-06T00:04:36.832Z,16.58
2022-10-06T00:05:36.821Z,16.57
2022-10-06T00:06:36.801Z,16.57
2022-10-06T00:07:36.791Z,16.57
2022-10-06T00:08:36.772Z,16.58
2022-10-06T00:09:36.760Z,16.58
2022-10-06T00:10:36.761Z,16.58
2022-10-06T00:11:36.745Z,16.57
2022-10-06T00:12:36.721Z,16.58
2022-10-06T00:13:36.702Z,16.58
2022-10-06T00:14:36.702Z,16.58
2022-10-06T00:15:36.751Z,16.58
2022-10-06T00:16:36.671Z,16.58
2022-10-06T00:17:36.653Z,16.60
2022-10-06T00:18:36.671Z,16.60
2022-10-06T00:19:36.630Z,16.57
2022-10-06T00:20:36.631Z,16.58
2022-10-06T00:21:36.600Z,16.58
2022-10-06T00:22:36.612Z,16.56
2022-10-06T00:23:36.571Z,16.58
2022-10-06T00:24:36.570Z,16.57
2022-10-06T00:25:36.569Z,16.58
2022-10-06T00:26:36.539Z,16.58
2022-10-06T00:27:36.551Z,16.57
2022-10-06T00:28:36.583Z,16.58
2022-10-06T00:29:36.501Z,16.58
2022-10-06T00:30:36.501Z,16.58
2022-10-06T00:31:36.474Z,16.58
2022-10-06T00:32:36.496Z,16.57
2022-10-06T00:33:36.474Z,16.57
2022-10-06T00:34:36.430Z,16.56
2022-10-06T00:35:36.447Z,16.58
2022-10-06T00:36:36.407Z,16.57
2022-10-06T00:37:36.390Z,16.56
2022-10-06T00:38:36.389Z,16.57
2022-10-06T00:39:36.362Z,16.56
2022-10-06T00:40:36.380Z,16.56
2022-10-06T00:41:36.341Z,16.56
2022-10-06T00:42:36.350Z,16.57
2022-10-06T00:43:36.321Z,16.56
2022-10-06T00:44:36.301Z,16.56
2022-10-06T00:45:36.340Z,16.57
2022-10-06T00:46:36.311Z,16.57
2022-10-06T00:47:36.261Z,16.57
2022-10-06T00:48:36.291Z,16.57
2022-10-06T00:49:36.234Z,16.57
2022-10-06T00:50:36.242Z,16.57
2022-10-06T00:51:36.225Z,16.56
2022-10-06T00:52:36.208Z,16.57
2022-10-06T00:53:36.192Z,16.57
2022-10-06T00:54:36.240Z,16.57
2022-10-06T00:55:36.162Z,16.57
2022-10-06T00:56:36.173Z,16.58
2022-10-06T00:57:36.142Z,16.58
2022-10-06T00:58:36.121Z,16.58
2022-10-06T00:59:36.117Z,16.58
2022-10-06T01:00:36.123Z,16.58
2022-10-06T01:01:36.121Z,16.60
2022-10-06T01:02:36.153Z,16.60
2022-10-06T01:03:36.050Z,16.58
2022-10-06T01:04:36.044Z,16.58
2022-10-06T01:05:36.022Z,16.60
2022-10-06T01:06:36.030Z,16.60
2022-10-06T01:07:36.087Z,16.60
2022-10-06T01:08:36.006Z,16.61
2022-10-06T01:09:35.980Z,16.60
2022-10-06T01:10:35.981Z,16.60
2022-10-06T01:11:35.960Z,16.61
2022-10-06T01:12:35.941Z,16.61
2022-10-06T01:13:35.918Z,16.61
2022-10-06T01:14:35.919Z,16.60
2022-10-06T01:15:35.927Z,16.60
2022-10-06T01:16:35.899Z,16.61
2022-10-06T01:17:35.872Z,16.64
2022-10-06T01:18:35.868Z,16.61
2022-10-06T01:19:35.871Z,16.61
2022-10-06T01:20:35.837Z,16.61
2022-10-06T01:21:35.831Z,16.61
2022-10-06T01:22:35.811Z,16.61
2022-10-06T01:23:35.790Z,16.60
2022-10-06T01:24:35.783Z,16.58
2022-10-06T01:25:35.769Z,16.56
2022-10-06T01:26:35.768Z,16.57
2022-10-06T01:27:35.730Z,16.57
2022-10-06T01:28:35.778Z,16.56
2022-10-06T01:29:35.709Z,16.54
2022-10-06T01:30:35.705Z,16.53
2022-10-06T01:31:35.758Z,16.51
2022-10-06T01:32:35.682Z,16.50
2022-10-06T01:33:35.669Z,16.47
2022-10-06T01:34:35.663Z,16.46
2022-10-06T01:35:35.630Z,16.42
2022-10-06T01:36:35.649Z,16.41
2022-10-06T01:37:35.609Z,16.38
2022-10-06T01:38:35.589Z,16.36
2022-10-06T01:39:35.578Z,16.35
2022-10-06T01:40:35.569Z,16.33
2022-10-06T01:41:35.578Z,16.31
2022-10-06T01:42:35.551Z,16.29
2022-10-06T01:43:35.530Z,16.28
2022-10-06T01:44:35.519Z,16.26
2022-10-06T01:45:35.499Z,16.23
2022-10-06T01:46:35.529Z,16.23
2022-10-06T01:47:35.475Z,16.20
2022-10-06T01:48:35.468Z,16.20
2022-10-06T01:49:35.454Z,16.16
2022-10-06T01:50:35.458Z,16.16
2022-10-06T01:51:35.437Z,16.15
2022-10-06T01:52:35.411Z,16.12
2022-10-06T01:53:35.409Z,16.12
2022-10-06T01:54:35.381Z,16.09
2022-10-06T01:55:35.369Z,16.08
2022-10-06T01:56:35.369Z,16.05
2022-10-06T01:57:35.348Z,16.04
2022-10-06T01:58:35.330Z,16.02
2022-10-06T01:59:35.319Z,16.01
2022-10-06T02:00:35.298Z,16.00
2022-10-06T02:01:35.344Z,15.98
2022-10-06T02:02:35.278Z,15.95
2022-10-06T02:03:35.266Z,15.94
2022-10-06T02:04:35.247Z,15.91
2022-10-06T02:05:35.237Z,15.90
2022-10-06T02:06:35.299Z,15.90
2022-10-06T02:07:35.210Z,15.86
2022-10-06T02:08:35.197Z,15.84
2022-10-06T02:09:35.179Z,15.83
2022-10-06T02:10:35.175Z,15.83
2022-10-06T02:11:35.176Z,15.82
2022-10-06T02:12:35.148Z,15.79
2022-10-06T02:13:35.127Z,15.79
2022-10-06T02:14:35.119Z,15.76
2022-10-06T02:15:35.171Z,15.76
2022-10-06T02:16:35.107Z,15.75
2022-10-06T02:17:35.078Z,15.75
2022-10-06T02:18:35.069Z,15.73
2022-10-06T02:19:35.047Z,15.72
2022-10-06T02:20:35.039Z,15.70
2022-10-06T02:21:35.039Z,15.67
2022-10-06T02:22:35.014Z,15.65
2022-10-06T02:23:34.995Z,15.65
2022-10-06T02:24:34.986Z,15.64
2022-10-06T02:25:34.967Z,15.62
2022-10-06T02:26:34.967Z,15.62
2022-10-06T02:27:34.937Z,15.59
2022-10-06T02:28:35.195Z,15.58
2022-10-06T02:29:34.916Z,15.58
2022-10-06T02:30:36.135Z,15.54
2022-10-06T02:31:35.723Z,15.54
2022-10-06T02:32:34.891Z,15.52
2022-10-06T02:33:34.864Z,15.52
2022-10-06T02:34:36.294Z,15.49
2022-10-06T02:35:36.140Z,15.47
2022-10-06T02:36:35.256Z,15.46
2022-10-06T02:37:36.046Z,15.44
2022-10-06T02:38:36.023Z,15.43
2022-10-06T02:39:35.616Z,15.40
2022-10-06T02:40:35.821Z,15.42
2022-10-06T02:41:34.778Z,15.39
2022-10-06T02:42:34.745Z,15.36
2022-10-06T02:43:34.740Z,15.36
2022-10-06T02:44:34.725Z,15.35
2022-10-06T02:45:34.705Z,15.35
2022-10-06T02:46:34.771Z,15.31
2022-10-06T02:47:34.678Z,15.29
2022-10-06T02:48:34.673Z,15.28
2022-10-06T02:49:34.657Z,15.27
2022-10-06T02:50:34.651Z,15.27
2022-10-06T02:51:34.646Z,15.24
2022-10-06T02:52:34.632Z,15.24
2022-10-06T02:53:34.605Z,15.21
2022-10-06T02:54:34.605Z,15.19
2022-10-06T02:55:34.578Z,15.19
2022-10-06T02:56:34.583Z,15.18
2022-10-06T02:57:34.568Z,15.17
2022-10-06T02:58:34.544Z,15.15
2022-10-06T02:59:34.524Z,15.15
2022-10-06T03:00:34.545Z,15.10
2022-10-06T03:01:34.585Z,15.09
2022-10-06T03:02:34.672Z,15.07
2022-10-06T03:03:34.481Z,15.06
2022-10-06T03:04:34.483Z,15.04
2022-10-06T03:05:34.451Z,15.02
2022-10-06T03:06:34.452Z,15.02
2022-10-06T03:07:34.414Z,15.02
2022-10-06T03:08:34.430Z,14.99
2022-10-06T03:09:34.404Z,14.99
2022-10-06T03:10:34.390Z,14.99
2022-10-06T03:11:34.375Z,14.99
2022-10-06T03:12:34.361Z,14.96
2022-10-06T03:13:34.345Z,14.94
2022-10-06T03:14:34.334Z,14.94
2022-10-06T03:15:34.314Z,14.91
2022-10-06T03:16:34.354Z,14.91
2022-10-06T03:17:34.294Z,14.91
2022-10-06T03:18:34.281Z,14.88
2022-10-06T03:19:34.263Z,14.88
2022-10-06T03:20:34.265Z,14.85
2022-10-06T03:21:34.254Z,14.85
2022-10-06T03:22:34.224Z,14.82
2022-10-06T03:23:34.223Z,14.79
2022-10-06T03:24:34.204Z,14.78
2022-10-06T03:25:34.182Z,14.79
2022-10-06T03:26:34.214Z,14.77
2022-10-06T03:27:34.153Z,14.73
2022-10-06T03:28:34.351Z,14.70
2022-10-06T03:29:34.137Z,14.72
2022-10-06T03:30:34.154Z,14.69
2022-10-06T03:31:34.191Z,14.68
2022-10-06T03:32:34.092Z,14.66
2022-10-06T03:33:34.082Z,14.63
2022-10-06T03:34:34.083Z,14.62
2022-10-06T03:35:34.063Z,14.62
2022-10-06T03:36:34.063Z,14.59
2022-10-06T03:37:34.041Z,14.59
2022-10-06T03:38:34.024Z,14.58
2022-10-06T03:39:34.017Z,14.54
2022-10-06T03:40:34.002Z,14.54
2022-10-06T03:41:33.992Z,14.53
2022-10-06T03:42:33.970Z,14.50
2022-10-06T03:43:33.952Z,14.50
2022-10-06T03:44:33.945Z,14.48
2022-10-06T03:45:33.931Z,14.47
2022-10-06T03:46:34.158Z,14.48
2022-10-06T03:47:33.910Z,14.45
2022-10-06T03:48:33.900Z,14.44
2022-10-06T03:49:33.872Z,14.43
2022-10-06T03:50:33.871Z,14.43
2022-10-06T03:51:33.859Z,14.40
2022-10-06T03:52:33.831Z,14.40
2022-10-06T03:53:33.819Z,14.36
2022-10-06T03:54:33.821Z,14.35
2022-10-06T03:55:33.792Z,14.32
2022-10-06T03:56:33.801Z,14.30
2022-10-06T03:57:33.772Z,14.30
2022-10-06T03:58:33.762Z,14.30
2022-10-06T03:59:33.742Z,14.28
2022-10-06T04:00:33.813Z,14.28
2022-10-06T04:01:33.812Z,14.26
2022-10-06T04:02:33.719Z,14.25
2022-10-06T04:03:33.690Z,14.23
2022-10-06T04:04:33.720Z,14.23
2022-10-06T04:05:33.660Z,14.22
2022-10-06T04:06:33.686Z,14.20
2022-10-06T04:07:33.638Z,14.18
2022-10-06T04:08:33.706Z,14.17
2022-10-06T04:09:33.620Z,14.12
2022-10-06T04:10:33.614Z,14.14
2022-10-06T04:11:33.601Z,14.12
2022-10-06T04:12:33.580Z,14.12
2022-10-06T04:13:33.575Z,14.11
2022-10-06T04:14:33.557Z,14.10
2022-10-06T04:15:33.529Z,14.08
2022-10-06T04:16:33.573Z,14.07
2022-10-06T04:17:33.519Z,14.07
2022-10-06T04:18:33.500Z,14.05
2022-10-06T04:19:33.489Z,14.04
2022-10-06T04:20:33.540Z,14.03
2022-10-06T04:21:33.479Z,14.03
2022-10-06T04:22:33.452Z,14.00
2022-10-06T04:23:33.433Z,13.99
2022-10-06T04:24:33.419Z,13.97
2022-10-06T04:25:33.400Z,13.95
2022-10-06T04:26:33.409Z,13.93
2022-10-06T04:27:33.385Z,13.93
2022-10-06T04:28:33.857Z,13.90
2022-10-06T04:29:33.350Z,13.92
2022-10-06T04:30:33.342Z,13.89
2022-10-06T04:31:33.398Z,13.87
2022-10-06T04:32:33.318Z,13.87
2022-10-06T04:33:33.299Z,13.86
2022-10-06T04:34:33.288Z,13.86
2022-10-06T04:35:33.277Z,13.83
2022-10-06T04:36:33.299Z,13.81
2022-10-06T04:37:33.257Z,13.81
2022-10-06T04:38:33.542Z,13.79
2022-10-06T04:39:33.217Z,13.79
2022-10-06T04:40:33.209Z,13.78
2022-10-06T04:41:33.208Z,13.78
2022-10-06T04:42:35.306Z,13.78
2022-10-06T04:43:33.187Z,13.77
2022-10-06T04:44:33.187Z,13.75
2022-10-06T04:45:33.238Z,13.75
2022-10-06T04:46:48.723Z,13.72
2022-10-06T04:47:34.128Z,13.74
2022-10-06T04:48:33.115Z,13.71
2022-10-06T04:49:33.097Z,13.71
2022-10-06T04:50:33.119Z,13.70
2022-10-06T04:51:33.080Z,13.67
2022-10-06T04:52:33.060Z,13.65
2022-10-06T04:53:33.048Z,13.65
2022-10-06T04:54:34.025Z,13.60
2022-10-06T04:55:33.070Z,13.62
2022-10-06T04:56:33.030Z,13.60
2022-10-06T04:57:33.005Z,13.57
2022-10-06T04:58:33.082Z,13.54
2022-10-06T04:59:32.991Z,13.53
2022-10-06T05:00:32.955Z,13.54
2022-10-06T05:01:32.945Z,13.53
2022-10-06T05:02:32.970Z,13.50
2022-10-06T05:03:32.915Z,13.50
2022-10-06T05:04:32.907Z,13.49
2022-10-06T05:05:32.885Z,13.49
2022-10-06T05:06:32.897Z,13.46
2022-10-06T05:07:32.985Z,13.46
2022-10-06T05:08:33.457Z,13.42
2022-10-06T05:09:32.908Z,13.42
2022-10-06T05:10:32.826Z,13.39
2022-10-06T05:11:32.835Z,13.38
2022-10-06T05:12:32.796Z,13.38
2022-10-06T05:13:32.816Z,13.37
2022-10-06T05:14:32.784Z,13.37
2022-10-06T05:15:32.756Z,13.33
2022-10-06T05:16:32.794Z,13.31
2022-10-06T05:17:32.733Z,13.30
2022-10-06T05:18:33.803Z,13.28
2022-10-06T05:19:33.363Z,13.28
2022-10-06T05:20:34.050Z,13.28
2022-10-06T05:21:32.693Z,13.28
2022-10-06T05:22:32.675Z,13.23
2022-10-06T05:23:32.663Z,13.23
2022-10-06T05:24:32.655Z,13.23
2022-10-06T05:25:32.624Z,13.22
2022-10-06T05:26:32.626Z,13.22
2022-10-06T05:27:32.609Z,13.20
2022-10-06T05:28:33.338Z,13.19
2022-10-06T05:29:32.585Z,13.18
2022-10-06T05:30:32.573Z,13.18
2022-10-06T05:31:32.591Z,13.15
2022-10-06T05:32:35.907Z,13.15
2022-10-06T05:33:32.534Z,13.13
2022-10-06T05:34:32.515Z,13.12
2022-10-06T05:35:32.494Z,13.11
2022-10-06T05:36:32.511Z,13.11
2022-10-06T05:37:32.474Z,13.11
2022-10-06T05:38:32.843Z,13.09
2022-10-06T05:39:32.446Z,13.09
2022-10-06T05:40:32.444Z,13.08
2022-10-06T05:41:32.443Z,13.08
2022-10-06T05:42:32.433Z,13.08
2022-10-06T05:43:32.395Z,13.09
2022-10-06T05:44:32.404Z,13.12
2022-10-06T05:45:32.416Z,13.12
2022-10-06T05:46:32.377Z,13.12
2022-10-06T05:47:32.343Z,13.12
2022-10-06T05:48:32.635Z,13.15
2022-10-06T05:49:32.323Z,13.12
2022-10-06T05:50:32.322Z,13.13
2022-10-06T05:51:32.304Z,13.13
2022-10-06T05:52:32.281Z,13.13
2022-10-06T05:53:32.263Z,13.12
2022-10-06T05:54:32.260Z,13.13
2022-10-06T05:55:32.234Z,13.12
2022-10-06T05:56:32.253Z,13.15
2022-10-06T05:57:32.215Z,13.13
2022-10-06T05:58:32.476Z,13.13
2022-10-06T05:59:32.190Z,13.13
2022-10-06T06:00:32.191Z,13.13
2022-10-06T06:01:32.240Z,13.13
2022-10-06T06:02:32.208Z,13.15
2022-10-06T06:03:32.136Z,13.16
2022-10-06T06:04:32.132Z,13.18
2022-10-06T06:05:32.118Z,13.19
2022-10-06T06:06:32.109Z,13.20
2022-10-06T06:07:32.089Z,13.22
2022-10-06T06:08:32.502Z,13.25
2022-10-06T06:09:32.080Z,13.28
2022-10-06T06:10:32.052Z,13.27
2022-10-06T06:11:32.058Z,13.37
2022-10-06T06:12:32.024Z,13.39
2022-10-06T06:13:32.021Z,13.44
2022-10-06T06:14:31.999Z,13.44
2022-10-06T06:15:32.044Z,13.46
2022-10-06T06:16:32.069Z,13.46
2022-10-06T06:17:31.950Z,13.47
2022-10-06T06:18:32.455Z,13.46
2022-10-06T06:19:31.933Z,13.47
2022-10-06T06:20:31.919Z,13.46
2022-10-06T06:21:31.919Z,13.46
2022-10-06T06:22:31.894Z,13.49
2022-10-06T06:23:31.878Z,13.47
2022-10-06T06:24:31.861Z,13.49
2022-10-06T06:25:31.849Z,13.49
2022-10-06T06:26:31.880Z,13.49
2022-10-06T06:27:31.820Z,13.49
2022-10-06T06:28:32.305Z,13.50
2022-10-06T06:29:31.821Z,13.52
2022-10-06T06:30:31.798Z,13.49
2022-10-06T06:31:31.835Z,13.49
2022-10-06T06:32:31.760Z,13.49
2022-10-06T06:33:31.742Z,13.49
2022-10-06T06:34:31.740Z,13.47
2022-10-06T06:35:31.729Z,13.49
2022-10-06T06:36:31.751Z,13.52
2022-10-06T06:37:31.714Z,13.54
2022-10-06T06:38:32.327Z,13.62
2022-10-06T06:39:31.674Z,13.70
2022-10-06T06:40:31.659Z,13.78
2022-10-06T06:41:31.665Z,13.85
2022-10-06T06:42:31.639Z,13.87
2022-10-06T06:43:32.197Z,13.93
2022-10-06T06:44:31.604Z,13.95
2022-10-06T06:45:31.622Z,13.96
2022-10-06T06:46:31.693Z,13.97
2022-10-06T06:47:31.576Z,14.00
2022-10-06T06:48:32.086Z,14.05
2022-10-06T06:49:31.547Z,14.05
2022-10-06T06:50:31.551Z,14.04
2022-10-06T06:51:31.528Z,14.04
2022-10-06T06:52:31.506Z,14.00
2022-10-06T06:53:31.479Z,13.99
2022-10-06T06:54:31.477Z,13.97
2022-10-06T06:55:31.460Z,13.96
2022-10-06T06:56:31.466Z,13.93
2022-10-06T06:57:31.428Z,13.96
2022-10-06T06:58:31.956Z,13.93
2022-10-06T06:59:31.408Z,13.93
2022-10-06T07:00:35.920Z,13.93
2022-10-06T07:01:31.436Z,13.93
2022-10-06T07:02:31.404Z,13.99
2022-10-06T07:03:56.182Z,14.04
2022-10-06T07:04:32.358Z,14.08
2022-10-06T07:05:31.326Z,14.11
2022-10-06T07:06:31.327Z,14.15
2022-10-06T07:07:31.304Z,14.23
2022-10-06T07:08:31.739Z,14.30
2022-10-06T07:09:31.269Z,14.40
2022-10-06T07:10:31.305Z,14.43
2022-10-06T07:11:31.283Z,14.53
2022-10-06T07:12:31.234Z,14.60
2022-10-06T07:13:31.225Z,14.73
2022-10-06T07:14:31.222Z,14.84
2022-10-06T07:15:31.238Z,14.94
2022-10-06T07:16:31.209Z,15.02
2022-10-06T07:17:31.167Z,15.10
2022-10-06T07:18:31.766Z,15.21
2022-10-06T07:19:31.188Z,15.33
2022-10-06T07:20:31.136Z,15.39
2022-10-06T07:21:31.116Z,15.44
2022-10-06T07:22:31.117Z,15.54
2022-10-06T07:23:31.086Z,15.61
2022-10-06T07:24:31.080Z,15.68
2022-10-06T07:25:31.067Z,15.70
2022-10-06T07:26:31.058Z,15.82
2022-10-06T07:27:31.053Z,15.94
2022-10-06T07:28:31.079Z,16.00
2022-10-06T07:29:31.027Z,16.08
2022-10-06T07:30:31.016Z,16.08
2022-10-06T07:31:31.000Z,16.08
2022-10-06T07:32:30.997Z,16.20
2022-10-06T07:33:30.959Z,16.33
2022-10-06T07:34:31.000Z,16.32
2022-10-06T07:35:30.939Z,16.50
2022-10-06T07:36:30.946Z,16.58
2022-10-06T07:37:30.935Z,16.66
2022-10-06T07:38:30.903Z,16.64
2022-10-06T07:39:30.884Z,16.64
2022-10-06T07:40:30.876Z,16.64
2022-10-06T07:41:30.876Z,16.72
2022-10-06T07:42:30.885Z,16.74
2022-10-06T07:43:30.829Z,16.89
2022-10-06T07:44:30.818Z,16.87
2022-10-06T07:45:30.850Z,16.86
2022-10-06T07:46:30.805Z,16.86
2022-10-06T07:47:30.788Z,16.81
2022-10-06T07:48:30.766Z,16.76
2022-10-06T07:49:30.757Z,16.74
2022-10-06T07:50:30.749Z,16.71
2022-10-06T07:51:30.737Z,16.68
2022-10-06T07:52:30.727Z,16.66
2022-10-06T07:53:30.698Z,16.66
2022-10-06T07:54:30.696Z,16.71
2022-10-06T07:55:30.675Z,16.71
2022-10-06T07:56:30.665Z,16.71
2022-10-06T07:57:30.667Z,16.69
2022-10-06T07:58:30.637Z,16.83
2022-10-06T07:59:30.615Z,16.91
2022-10-06T08:00:30.627Z,16.99
2022-10-06T08:01:30.746Z,17.14
2022-10-06T08:02:34.711Z,17.27
2022-10-06T08:03:31.574Z,17.46
2022-10-06T08:04:30.562Z,17.52
2022-10-06T08:05:30.539Z,17.67
2022-10-06T08:06:30.548Z,17.72
2022-10-06T08:07:30.526Z,17.72
2022-10-06T08:08:30.506Z,17.79
2022-10-06T08:09:30.488Z,17.79
2022-10-06T08:10:30.477Z,17.94
2022-10-06T08:11:30.465Z,18.01
2022-10-06T08:12:30.475Z,18.19
2022-10-06T08:13:30.438Z,18.19
2022-10-06T08:14:30.706Z,18.20
2022-10-06T08:15:30.427Z,18.26
2022-10-06T08:16:30.606Z,18.34
2022-10-06T08:17:30.398Z,18.45
2022-10-06T08:18:47.134Z,18.59
2022-10-06T08:19:31.360Z,18.74
2022-10-06T08:20:30.346Z,18.86
2022-10-06T08:21:30.335Z,18.93
2022-10-06T08:22:30.334Z,19.07
2022-10-06T08:23:30.306Z,19.21
2022-10-06T08:24:37.850Z,19.22
2022-10-06T08:25:31.286Z,19.27
2022-10-06T08:26:30.265Z,19.29
2022-10-06T08:27:30.266Z,19.22
2022-10-06T08:28:30.308Z,19.21
2022-10-06T08:29:30.236Z,19.08
2022-10-06T08:30:30.215Z,19.02
2022-10-06T08:31:30.231Z,18.99
2022-10-06T08:32:30.207Z,19.11
2022-10-06T08:33:30.184Z,19.21
2022-10-06T08:34:30.187Z,19.30
2022-10-06T08:35:30.168Z,19.31
2022-10-06T08:36:32.295Z,19.30
2022-10-06T08:37:30.151Z,19.24
2022-10-06T08:38:30.106Z,19.26
2022-10-06T08:39:30.098Z,19.36
2022-10-06T08:40:30.086Z,19.49
2022-10-06T08:41:30.136Z,19.64
2022-10-06T08:42:30.085Z,19.82
2022-10-06T08:43:30.043Z,19.94
2022-10-06T08:44:30.036Z,20.00
2022-10-06T08:45:30.796Z,20.13
2022-10-06T08:46:30.026Z,20.25
2022-10-06T08:47:30.006Z,20.32
2022-10-06T08:48:29.999Z,20.36
2022-10-06T08:49:29.964Z,20.51
2022-10-06T08:50:29.977Z,20.60
2022-10-06T08:51:29.955Z,20.67
2022-10-06T08:52:29.946Z,20.67
2022-10-06T08:53:29.934Z,20.70
2022-10-06T08:54:29.971Z,20.78
2022-10-06T08:55:29.900Z,20.92
2022-10-06T08:56:29.876Z,20.92
2022-10-06T08:57:29.871Z,20.81
2022-10-06T08:58:29.864Z,20.80
2022-10-06T08:59:29.828Z,20.81
2022-10-06T09:00:29.826Z,20.78
2022-10-06T09:01:29.862Z,20.87
2022-10-06T09:02:29.892Z,20.92
2022-10-06T09:03:29.791Z,20.84
2022-10-06T09:04:29.775Z,20.84
2022-10-06T09:05:29.754Z,20.78
2022-10-06T09:06:29.762Z,20.92
2022-10-06T09:07:29.755Z,21.03
2022-10-06T09:08:29.742Z,21.17
2022-10-06T09:09:29.705Z,21.32
2022-10-06T09:10:29.687Z,21.48
2022-10-06T09:11:29.700Z,21.57
2022-10-06T09:12:29.696Z,21.55
2022-10-06T09:13:29.656Z,21.67
2022-10-06T09:14:29.675Z,21.66
2022-10-06T09:15:29.625Z,21.72
2022-10-06T09:16:29.704Z,21.73
2022-10-06T09:17:29.643Z,21.67
2022-10-06T09:18:49.289Z,21.72
2022-10-06T09:19:33.590Z,21.82
2022-10-06T09:20:29.585Z,21.96
2022-10-06T09:21:29.555Z,22.07
2022-10-06T09:22:29.556Z,22.26
2022-10-06T09:23:29.529Z,22.45
2022-10-06T09:24:29.509Z,22.62
2022-10-06T09:25:29.506Z,22.78
2022-10-06T09:26:29.510Z,22.75
2022-10-06T09:27:29.467Z,22.91
2022-10-06T09:28:29.531Z,23.08
2022-10-06T09:29:29.426Z,23.18
2022-10-06T09:30:29.432Z,23.34
2022-10-06T09:31:29.508Z,23.50
2022-10-06T09:32:29.418Z,23.66
2022-10-06T09:33:29.392Z,23.80
2022-10-06T09:34:29.379Z,23.93
2022-10-06T09:35:29.369Z,24.11
2022-10-06T09:36:29.359Z,24.20
2022-10-06T09:37:29.350Z,24.33
2022-10-06T09:38:29.327Z,24.43
2022-10-06T09:39:29.318Z,24.53
2022-10-06T09:40:29.297Z,24.35
2022-10-06T09:41:29.278Z,24.16
2022-10-06T09:42:29.284Z,23.99
2022-10-06T09:43:29.270Z,23.96
2022-10-06T09:44:29.240Z,23.93
2022-10-06T09:45:29.237Z,23.73
2022-10-06T09:46:29.219Z,23.78
2022-10-06T09:47:29.217Z,23.87
2022-10-06T09:48:29.256Z,23.96
2022-10-06T09:49:29.177Z,24.05
2022-10-06T09:50:29.176Z,24.21
2022-10-06T09:51:29.147Z,24.33
2022-10-06T09:52:29.168Z,24.38
2022-10-06T09:53:29.130Z,24.48
2022-10-06T09:54:29.133Z,24.51
2022-10-06T09:55:29.118Z,24.60
2022-10-06T09:56:29.105Z,24.65
2022-10-06T09:57:29.092Z,24.69
2022-10-06T09:58:29.089Z,24.73
2022-10-06T09:59:29.059Z,24.74
2022-10-06T10:00:29.059Z,24.76
2022-10-06T10:01:29.106Z,24.77
2022-10-06T10:02:29.064Z,24.80
2022-10-06T10:03:28.996Z,24.86
2022-10-06T10:04:28.990Z,24.93
2022-10-06T10:05:28.965Z,24.95
2022-10-06T10:06:28.961Z,24.98
2022-10-06T10:07:28.958Z,24.96
2022-10-06T10:08:28.970Z,24.80
2022-10-06T10:09:28.937Z,24.85
2022-10-06T10:10:28.911Z,24.76
2022-10-06T10:11:28.888Z,24.74
2022-10-06T10:12:28.897Z,24.80
2022-10-06T10:13:28.878Z,24.86
2022-10-06T10:14:28.859Z,24.98
2022-10-06T10:15:28.848Z,25.04
2022-10-06T10:16:28.902Z,25.10
2022-10-06T10:17:28.829Z,25.18
2022-10-06T10:18:28.815Z,25.21
2022-10-06T10:19:28.788Z,25.25
2022-10-06T10:20:28.770Z,25.33
2022-10-06T10:21:28.767Z,25.43
2022-10-06T10:22:28.769Z,25.46
2022-10-06T10:23:31.333Z,25.41
2022-10-06T10:24:28.720Z,25.44
2022-10-06T10:25:28.719Z,25.25
2022-10-06T10:26:28.709Z,25.21
2022-10-06T10:27:28.698Z,24.92
2022-10-06T10:28:28.720Z,24.89
2022-10-06T10:29:32.509Z,24.85
2022-10-06T10:30:28.658Z,24.80
2022-10-06T10:31:28.702Z,24.81
2022-10-06T10:32:28.635Z,24.69
2022-10-06T10:33:28.610Z,24.69
2022-10-06T10:34:28.590Z,24.69
2022-10-06T10:35:28.588Z,24.68
2022-10-06T10:36:28.559Z,24.68
2022-10-06T10:37:28.576Z,24.69
2022-10-06T10:38:28.539Z,24.70
2022-10-06T10:39:28.529Z,24.69
2022-10-06T10:40:28.513Z,24.66
2022-10-06T10:41:28.509Z,24.68
2022-10-06T10:42:28.515Z,24.68
2022-10-06T10:43:28.477Z,24.66
2022-10-06T10:44:28.460Z,24.61
2022-10-06T10:45:28.460Z,24.60
2022-10-06T10:46:28.490Z,24.58
2022-10-06T10:47:28.450Z,24.47
2022-10-06T10:48:28.414Z,24.42
2022-10-06T10:49:28.451Z,24.39
2022-10-06T10:50:28.389Z,24.39
2022-10-06T10:51:28.395Z,24.35
2022-10-06T10:52:28.369Z,24.33
2022-10-06T10:53:28.350Z,24.30
2022-10-06T10:54:28.330Z,24.28
2022-10-06T10:55:28.335Z,24.29
2022-10-06T10:56:28.302Z,24.30
2022-10-06T10:57:28.309Z,24.30
2022-10-06T10:58:28.283Z,24.30
2022-10-06T10:59:28.269Z,24.30
2022-10-06T11:00:28.285Z,24.30
2022-10-06T11:01:28.282Z,24.29
2022-10-06T11:02:28.240Z,24.26
2022-10-06T11:03:28.236Z,24.26
2022-10-06T11:04:28.209Z,24.24
2022-10-06T11:05:29.043Z,24.21
2022-10-06T11:06:28.189Z,24.20
2022-10-06T11:07:28.189Z,24.17
2022-10-06T11:08:28.148Z,24.16
2022-10-06T11:09:28.146Z,24.11
2022-10-06T11:10:28.121Z,24.08
2022-10-06T11:11:28.111Z,24.05
2022-10-06T11:12:28.139Z,24.02
2022-10-06T11:13:28.090Z,23.95
2022-10-06T11:14:28.069Z,23.91
2022-10-06T11:15:28.091Z,23.87
2022-10-06T11:16:28.090Z,23.78
2022-10-06T11:17:29.026Z,23.71
2022-10-06T11:18:28.046Z,23.69
2022-10-06T11:19:28.020Z,23.65
2022-10-06T11:20:27.991Z,23.62
2022-10-06T11:21:27.996Z,23.61
2022-10-06T11:22:27.982Z,23.61
2022-10-06T11:23:27.955Z,23.58
2022-10-06T11:24:27.942Z,23.58
2022-10-06T11:25:30.087Z,23.58
2022-10-06T11:26:27.943Z,23.51
2022-10-06T11:27:27.934Z,23.46
2022-10-06T11:28:27.957Z,23.44
2022-10-06T11:29:27.882Z,23.46
2022-10-06T11:30:27.864Z,23.46
2022-10-06T11:31:27.951Z,23.44
2022-10-06T11:32:27.873Z,23.41
2022-10-06T11:33:27.831Z,23.36
2022-10-06T11:34:27.826Z,23.27
2022-10-06T11:35:27.811Z,23.21
2022-10-06T11:36:27.791Z,23.18
2022-10-06T11:37:28.042Z,23.23
2022-10-06T11:38:27.765Z,23.28
2022-10-06T11:39:27.750Z,23.34
2022-10-06T11:40:27.743Z,23.36
2022-10-06T11:41:27.740Z,23.40
2022-10-06T11:42:27.723Z,23.43
2022-10-06T11:43:27.719Z,23.43
2022-10-06T11:44:27.682Z,23.48
2022-10-06T11:45:27.710Z,23.50
2022-10-06T11:46:31.156Z,23.55
2022-10-06T11:47:35.106Z,23.58
2022-10-06T11:48:28.654Z,23.63
2022-10-06T11:49:27.621Z,23.66
2022-10-06T11:50:27.612Z,23.69
2022-10-06T11:51:27.611Z,23.74
2022-10-06T11:52:27.611Z,23.78
2022-10-06T11:53:27.562Z,23.81
2022-10-06T11:54:27.579Z,23.83
2022-10-06T11:55:27.543Z,23.88
2022-10-06T11:56:27.547Z,23.92
2022-10-06T11:57:31.003Z,23.95
2022-10-06T11:58:41.811Z,23.98
2022-10-06T11:59:28.492Z,23.99
2022-10-06T12:00:27.484Z,23.96
2022-10-06T12:01:27.466Z,23.99
2022-10-06T12:02:27.536Z,23.99
2022-10-06T12:03:27.463Z,24.02
2022-10-06T12:04:27.413Z,24.05
2022-10-06T12:05:57.523Z,24.05
2022-10-06T12:06:28.408Z,24.08
2022-10-06T12:07:27.406Z,24.13
2022-10-06T12:08:27.376Z,24.17
2022-10-06T12:09:27.352Z,24.18
2022-10-06T12:10:27.345Z,24.21
2022-10-06T12:11:27.342Z,24.28
2022-10-06T12:12:27.333Z,24.30
2022-10-06T12:14:12.470Z,24.32
2022-10-06T12:17:28.311Z,24.42
2022-10-06T12:18:27.240Z,24.43
2022-10-06T12:19:27.232Z,24.47
2022-10-06T12:20:27.212Z,24.50
2022-10-06T12:21:27.202Z,24.50
2022-10-06T12:22:27.225Z,24.51
2022-10-06T12:23:27.176Z,24.51
2022-10-06T12:24:27.180Z,24.55
2022-10-06T12:25:27.151Z,24.55
2022-10-06T12:26:27.135Z,24.55
2022-10-06T12:27:27.136Z,24.53
2022-10-06T12:28:27.260Z,24.54
2022-10-06T12:29:27.121Z,24.53
2022-10-06T12:30:27.120Z,24.54
2022-10-06T12:31:27.150Z,24.55
2022-10-06T12:32:27.079Z,24.57
2022-10-06T12:33:27.042Z,24.58
2022-10-06T12:34:27.014Z,24.61
2022-10-06T12:35:27.026Z,24.61
2022-10-06T12:36:27.003Z,24.63
2022-10-06T12:37:27.003Z,24.65
2022-10-06T12:38:26.975Z,24.65
2022-10-06T12:39:26.965Z,24.65
2022-10-06T12:40:26.955Z,24.69
2022-10-06T12:41:26.945Z,24.69
2022-10-06T12:42:26.944Z,24.70
2022-10-06T12:43:26.906Z,24.70
2022-10-06T12:44:26.903Z,24.73
2022-10-06T12:45:26.899Z,24.76
2022-10-06T12:46:26.893Z,24.77
2022-10-06T12:47:26.867Z,24.78
2022-10-06T12:48:26.844Z,24.80
2022-10-06T12:49:26.834Z,24.81
2022-10-06T12:50:26.813Z,24.84
2022-10-06T12:51:26.834Z,24.84
2022-10-06T12:52:26.805Z,24.88
2022-10-06T12:53:26.777Z,24.89
2022-10-06T12:54:26.764Z,24.93
2022-10-06T12:55:26.757Z,24.96